Louellen, Kentucky
Current Conditions -  °F | °C
As of 9:55 AM on Sunday 23 Nov 2014 (Local Time) from KI35 Reporting Station
Broken Clouds Broken Clouds  
Wind Chill: 55°   Ceiling: 9500
Heat Index: 55°   Visibility: 10mi
Dew Point: 43°   Wind: 9mph
Humidity: 63%   Direction: 100°E
Pressure: 30"   Gusts: NA
Location:  36.8509°N, 83.1611°W
Report Text: KI35 231455Z AUTO 10008KT 340V190 10SM BKN095 BKN110 13/06 A3000 RMK AO1
Loading
Personal Weather Stations






























Interactive Weather Map New forecast layout! Learn more

10-Day Weather Forecast

Advertisements
Track Severe Weather on mobile